createdAt,value
2023-04-30T00:01:28.121Z,8.50
2023-04-30T00:03:54.860Z,9.38
2023-04-30T00:06:21.674Z,9.55
2023-04-30T00:08:48.298Z,9.32
2023-04-30T00:11:14.983Z,9.05
2023-04-30T00:13:42.901Z,8.93
2023-04-30T00:16:10.038Z,9.52
2023-04-30T00:18:37.016Z,9.55
2023-04-30T00:21:03.944Z,9.43
2023-04-30T00:23:30.705Z,9.27
2023-04-30T00:25:57.332Z,11.70
2023-04-30T00:28:23.920Z,9.40
2023-04-30T00:30:50.690Z,11.25
2023-04-30T00:33:17.375Z,10.70
2023-04-30T00:35:44.460Z,9.32
2023-04-30T00:38:11.399Z,9.63
2023-04-30T00:40:40.171Z,9.18
2023-04-30T00:43:06.779Z,9.20
2023-04-30T00:45:33.468Z,9.38
2023-04-30T00:48:00.266Z,11.80
2023-04-30T00:50:27.075Z,11.10
2023-04-30T00:52:53.903Z,11.38
2023-04-30T00:55:20.813Z,10.80
2023-04-30T00:57:47.496Z,10.38
2023-04-30T01:00:14.951Z,12.32
2023-04-30T01:02:41.804Z,11.93
2023-04-30T01:05:08.776Z,11.80
2023-04-30T01:07:38.595Z,11.30
2023-04-30T01:10:07.030Z,11.20
2023-04-30T01:12:39.646Z,11.50
2023-04-30T01:15:35.927Z,11.30
2023-04-30T01:18:42.057Z,11.10
2023-04-30T01:21:09.549Z,10.77
2023-04-30T01:24:05.028Z,11.48
2023-04-30T01:29:19.433Z,11.60
2023-04-30T01:31:46.404Z,12.10
2023-04-30T01:34:13.131Z,12.82
2023-04-30T01:36:42.620Z,13.15
2023-04-30T01:39:36.700Z,12.45
2023-04-30T01:42:20.480Z,12.10
2023-04-30T01:45:05.364Z,13.73
2023-04-30T01:48:10.544Z,13.40
2023-04-30T01:50:47.447Z,12.80
2023-04-30T01:53:21.967Z,12.88
2023-04-30T01:55:53.686Z,12.88
2023-04-30T01:58:24.012Z,13.20
2023-04-30T02:00:50.790Z,13.77
2023-04-30T02:03:18.167Z,14.45
2023-04-30T02:05:45.430Z,14.18
2023-04-30T02:08:12.192Z,13.25
2023-04-30T02:10:38.920Z,10.68
2023-04-30T02:13:05.664Z,11.55
2023-04-30T02:15:32.512Z,13.85
2023-04-30T02:17:59.232Z,12.68
2023-04-30T02:20:26.094Z,12.52
2023-04-30T02:22:53.158Z,13.85
2023-04-30T02:25:19.792Z,10.77
2023-04-30T02:27:46.513Z,11.73
2023-04-30T02:30:13.218Z,13.80
2023-04-30T02:32:39.964Z,14.63
2023-04-30T02:35:06.844Z,13.15
2023-04-30T02:37:33.533Z,15.05
2023-04-30T02:40:00.151Z,15.45
2023-04-30T02:42:26.821Z,14.57
2023-04-30T02:44:53.495Z,15.07
2023-04-30T02:47:20.193Z,14.80
2023-04-30T02:49:47.077Z,14.55
2023-04-30T02:52:13.805Z,13.75
2023-04-30T02:54:40.482Z,13.18
2023-04-30T02:57:07.352Z,15.77
2023-04-30T02:59:34.017Z,15.25
2023-04-30T03:02:00.826Z,14.82
2023-04-30T03:04:27.645Z,16.08
2023-04-30T03:06:54.310Z,15.02
2023-04-30T03:09:21.324Z,14.80
2023-04-30T03:11:47.979Z,15.32
2023-04-30T03:14:14.561Z,14.55
2023-04-30T03:16:41.324Z,15.52
2023-04-30T03:19:08.063Z,14.95
2023-04-30T03:21:34.660Z,15.90
2023-04-30T03:24:01.268Z,15.25
2023-04-30T03:26:28.228Z,15.18
2023-04-30T03:28:55.856Z,15.15
2023-04-30T03:31:22.829Z,15.27
2023-04-30T03:33:49.595Z,15.65
2023-04-30T03:36:16.496Z,14.68
2023-04-30T03:38:43.158Z,13.60
2023-04-30T03:41:09.887Z,14.88
2023-04-30T03:43:38.031Z,14.73
2023-04-30T03:46:05.135Z,13.32
2023-04-30T03:48:32.047Z,13.30
2023-04-30T03:50:58.786Z,14.45
2023-04-30T03:53:26.663Z,14.90
2023-04-30T03:55:54.605Z,16.48
2023-04-30T03:58:21.659Z,16.13
2023-04-30T04:00:48.628Z,15.07
2023-04-30T04:03:15.981Z,16.80
2023-04-30T04:05:42.771Z,14.82
2023-04-30T04:08:10.018Z,14.70
2023-04-30T04:10:36.657Z,16.45
2023-04-30T04:13:04.019Z,14.80
2023-04-30T04:15:31.012Z,13.38
2023-04-30T04:17:57.776Z,13.25
2023-04-30T04:20:24.573Z,13.27
2023-04-30T04:22:51.624Z,12.77
2023-04-30T04:25:18.424Z,12.40
2023-04-30T04:27:45.118Z,12.75
2023-04-30T04:30:12.211Z,15.90
2023-04-30T04:32:48.128Z,12.80
2023-04-30T04:35:15.604Z,13.13
2023-04-30T04:37:42.256Z,13.77
2023-04-30T04:40:09.359Z,14.15
2023-04-30T04:42:36.097Z,14.45
2023-04-30T04:45:03.719Z,15.35
2023-04-30T04:47:30.643Z,14.38
2023-04-30T04:49:57.440Z,15.20
2023-04-30T04:52:24.166Z,14.20
2023-04-30T04:54:51.705Z,12.45
2023-04-30T04:57:18.591Z,13.98
2023-04-30T04:59:45.268Z,11.70
2023-04-30T05:02:11.977Z,13.95
2023-04-30T05:04:38.631Z,13.45
2023-04-30T05:07:05.840Z,13.50
2023-04-30T05:09:32.556Z,10.85
2023-04-30T05:11:59.321Z,14.48
2023-04-30T05:14:26.142Z,14.85
2023-04-30T05:16:52.860Z,15.20
2023-04-30T05:19:19.568Z,15.23
2023-04-30T05:21:46.917Z,14.35
2023-04-30T05:24:13.658Z,14.15
2023-04-30T05:26:40.388Z,14.80
2023-04-30T05:29:07.217Z,14.13
2023-04-30T05:31:33.858Z,14.30
2023-04-30T05:34:00.782Z,14.70
2023-04-30T05:36:28.420Z,17.30
2023-04-30T05:38:55.357Z,15.73
2023-04-30T05:41:22.173Z,15.80
2023-04-30T05:43:49.049Z,16.13
2023-04-30T05:46:15.675Z,11.98
2023-04-30T05:48:42.306Z,16.60
2023-04-30T05:51:10.650Z,14.73
2023-04-30T05:53:37.314Z,16.13
2023-04-30T05:56:04.002Z,15.13
2023-04-30T05:58:30.670Z,8.65
2023-04-30T06:00:59.365Z,9.38
2023-04-30T06:03:26.174Z,12.57
2023-04-30T06:05:52.855Z,15.43
2023-04-30T06:08:19.722Z,15.68
2023-04-30T06:10:46.590Z,15.55
2023-04-30T06:13:14.789Z,14.75
2023-04-30T06:15:41.820Z,14.68
2023-04-30T06:18:08.604Z,8.48
2023-04-30T06:20:35.422Z,11.73
2023-04-30T06:23:04.052Z,15.27
2023-04-30T06:25:30.849Z,15.02
2023-04-30T06:27:57.451Z,12.77
2023-04-30T06:30:24.055Z,13.65
2023-04-30T06:32:50.834Z,18.20
2023-04-30T06:35:17.548Z,14.13
2023-04-30T06:37:44.277Z,16.38
2023-04-30T06:40:11.502Z,16.20
2023-04-30T06:42:38.845Z,15.15
2023-04-30T06:45:08.922Z,13.13
2023-04-30T06:47:37.896Z,13.65
2023-04-30T06:50:05.278Z,12.35
2023-04-30T06:52:31.942Z,13.80
2023-04-30T06:54:58.528Z,9.20
2023-04-30T06:57:25.814Z,9.68
2023-04-30T06:59:53.003Z,9.52
2023-04-30T07:02:21.898Z,11.73
2023-04-30T07:04:49.610Z,14.90
2023-04-30T07:07:16.498Z,14.63
2023-04-30T07:09:43.184Z,13.30
2023-04-30T07:12:11.929Z,12.50
2023-04-30T07:14:38.756Z,14.32
2023-04-30T07:17:05.938Z,11.35
2023-04-30T07:19:32.594Z,9.27
2023-04-30T07:21:59.292Z,14.38
2023-04-30T07:24:26.023Z,11.52
2023-04-30T07:26:52.761Z,13.57
2023-04-30T07:29:20.084Z,8.45
2023-04-30T07:31:46.821Z,14.98
2023-04-30T07:34:13.782Z,12.80
2023-04-30T07:36:40.483Z,10.00
2023-04-30T07:39:08.074Z,13.27
2023-04-30T07:41:34.757Z,10.98
2023-04-30T07:44:01.341Z,12.30
2023-04-30T07:46:28.179Z,12.38
2023-04-30T07:48:54.861Z,11.93
2023-04-30T07:51:21.525Z,9.57
2023-04-30T07:53:48.172Z,11.77
2023-04-30T07:56:14.825Z,11.32
2023-04-30T07:58:41.679Z,12.50
2023-04-30T08:01:08.547Z,12.05
2023-04-30T08:03:35.619Z,12.32
2023-04-30T08:06:03.108Z,11.23
2023-04-30T08:08:29.853Z,9.98
2023-04-30T08:10:56.663Z,11.02
2023-04-30T08:13:23.360Z,11.27
2023-04-30T08:15:50.015Z,11.43
2023-04-30T08:18:16.705Z,10.75
2023-04-30T08:20:43.365Z,11.05
2023-04-30T08:23:10.217Z,11.40
2023-04-30T08:25:37.060Z,10.05
2023-04-30T08:28:03.766Z,9.68
2023-04-30T08:30:30.616Z,10.15
2023-04-30T08:32:57.865Z,10.25
2023-04-30T08:35:24.791Z,7.57
2023-04-30T08:37:51.664Z,10.15
2023-04-30T08:40:18.668Z,6.80
2023-04-30T08:42:54.176Z,10.05
2023-04-30T08:45:21.858Z,9.63
2023-04-30T08:47:50.035Z,7.45
2023-04-30T08:50:16.802Z,8.00
2023-04-30T08:52:44.214Z,8.73
2023-04-30T08:55:11.313Z,7.65
2023-04-30T08:57:38.803Z,5.38
2023-04-30T09:00:07.239Z,7.68
2023-04-30T09:02:34.927Z,7.68
2023-04-30T09:05:02.258Z,8.45
2023-04-30T09:07:33.664Z,5.65
2023-04-30T09:10:00.780Z,8.57
2023-04-30T09:12:27.733Z,8.88
2023-04-30T09:15:02.353Z,6.65
2023-04-30T09:20:12.254Z,8.02
2023-04-30T09:22:40.457Z,10.10
2023-04-30T09:25:08.340Z,9.35
2023-04-30T09:27:35.452Z,7.65
2023-04-30T09:30:02.244Z,5.25
2023-04-30T09:32:29.274Z,7.72
2023-04-30T09:34:56.325Z,8.35
2023-04-30T09:37:34.898Z,6.43
2023-04-30T09:40:01.598Z,7.25
2023-04-30T09:42:28.424Z,7.50
2023-04-30T09:44:55.365Z,3.92
2023-04-30T09:47:22.333Z,5.13
2023-04-30T09:49:54.059Z,5.25
2023-04-30T09:52:21.623Z,5.18
2023-04-30T09:54:48.643Z,4.53
2023-04-30T09:57:16.242Z,5.50
2023-04-30T09:59:46.029Z,5.43
2023-04-30T10:02:16.120Z,6.55
2023-04-30T10:04:46.092Z,6.85
2023-04-30T10:07:21.743Z,6.38
2023-04-30T10:09:57.402Z,3.80
2023-04-30T10:12:42.790Z,7.38
2023-04-30T10:15:21.020Z,6.10
2023-04-30T10:17:54.790Z,4.43
2023-04-30T10:20:23.531Z,5.50
2023-04-30T10:22:50.533Z,6.10
2023-04-30T10:25:17.326Z,4.95
2023-04-30T10:27:44.069Z,5.22
2023-04-30T10:30:11.923Z,5.78
2023-04-30T10:32:57.748Z,3.88
2023-04-30T10:35:33.638Z,5.70
2023-04-30T10:38:10.432Z,4.20
2023-04-30T10:40:38.647Z,5.32
2023-04-30T10:43:05.776Z,3.17
2023-04-30T10:45:43.848Z,6.10
2023-04-30T10:48:11.108Z,4.20
2023-04-30T10:50:45.571Z,2.72
2023-04-30T10:53:16.094Z,4.03
2023-04-30T10:56:06.803Z,3.33
2023-04-30T10:58:39.689Z,4.28
2023-04-30T11:01:13.884Z,3.45
2023-04-30T11:03:43.124Z,2.33
2023-04-30T11:06:14.988Z,3.67
2023-04-30T11:08:46.812Z,3.17
2023-04-30T11:11:21.000Z,4.57
2023-04-30T11:16:20.340Z,4.25
2023-04-30T11:18:47.574Z,3.90
2023-04-30T11:21:14.474Z,4.28
2023-04-30T11:23:49.716Z,4.43
2023-04-30T11:26:16.365Z,2.83
2023-04-30T11:28:52.724Z,3.80
2023-04-30T11:31:19.862Z,3.58
2023-04-30T11:33:46.695Z,3.83
2023-04-30T11:36:14.737Z,4.20
2023-04-30T11:38:41.722Z,4.68
2023-04-30T11:41:13.028Z,4.50
2023-04-30T11:43:39.839Z,4.20
2023-04-30T11:46:11.963Z,4.57
2023-04-30T11:48:40.834Z,4.07
2023-04-30T11:51:16.715Z,4.85
2023-04-30T11:53:45.293Z,4.55
2023-04-30T11:56:12.382Z,6.70
2023-04-30T11:58:40.347Z,6.15
2023-04-30T12:01:09.780Z,4.13
2023-04-30T12:03:52.745Z,4.47
2023-04-30T12:06:28.914Z,3.58
2023-04-30T12:08:57.300Z,4.35
2023-04-30T12:11:27.130Z,2.95
2023-04-30T12:13:55.635Z,3.05
2023-04-30T12:16:29.268Z,2.50
2023-04-30T12:18:56.075Z,3.83
2023-04-30T12:21:23.266Z,3.63
2023-04-30T12:23:50.403Z,4.00
2023-04-30T12:26:17.738Z,4.30
2023-04-30T12:28:47.475Z,3.88
2023-04-30T12:31:14.179Z,4.63
2023-04-30T12:33:40.773Z,4.18
2023-04-30T12:36:11.321Z,3.80
2023-04-30T12:38:38.252Z,5.63
2023-04-30T12:41:05.479Z,3.38
2023-04-30T12:43:32.417Z,4.40
2023-04-30T12:45:59.706Z,4.43
2023-04-30T12:48:26.359Z,3.95
2023-04-30T12:51:04.896Z,4.30
2023-04-30T12:53:32.009Z,3.97
2023-04-30T12:56:16.579Z,5.82
2023-04-30T13:01:13.619Z,3.60
2023-04-30T13:03:40.547Z,3.45
2023-04-30T13:06:07.519Z,5.05
2023-04-30T13:08:42.697Z,2.80
2023-04-30T13:11:16.844Z,3.15
2023-04-30T13:13:43.749Z,3.30
2023-04-30T13:16:10.435Z,3.25
2023-04-30T13:18:37.246Z,4.78
2023-04-30T13:21:04.198Z,4.55
2023-04-30T13:23:35.920Z,4.05
2023-04-30T13:26:08.064Z,4.70
2023-04-30T13:28:34.721Z,2.63
2023-04-30T13:31:02.660Z,4.07
2023-04-30T13:33:29.646Z,4.13
2023-04-30T13:35:56.269Z,3.58
2023-04-30T13:38:23.115Z,2.70
2023-04-30T13:40:50.117Z,4.13
2023-04-30T13:43:16.878Z,2.40
2023-04-30T13:45:43.502Z,2.58
2023-04-30T13:48:10.195Z,3.00
2023-04-30T13:50:36.863Z,2.22
2023-04-30T13:53:03.727Z,3.03
2023-04-30T13:55:30.462Z,2.30
2023-04-30T13:57:57.717Z,4.05
2023-04-30T14:00:24.606Z,5.18
2023-04-30T14:02:51.525Z,4.45
2023-04-30T14:05:18.360Z,4.85
2023-04-30T14:07:45.041Z,2.47
2023-04-30T14:10:12.924Z,4.45
2023-04-30T14:12:39.716Z,4.20
2023-04-30T14:15:07.166Z,4.13
2023-04-30T14:17:34.397Z,3.65
2023-04-30T14:20:03.584Z,3.05
2023-04-30T14:22:31.082Z,2.30
2023-04-30T14:24:57.769Z,3.30
2023-04-30T14:27:25.365Z,3.30
2023-04-30T14:29:51.960Z,2.40
2023-04-30T14:32:19.254Z,3.53
2023-04-30T14:34:46.019Z,2.25
2023-04-30T14:37:13.136Z,3.45
2023-04-30T14:39:45.796Z,2.20
2023-04-30T14:42:12.610Z,2.15
2023-04-30T14:44:40.454Z,3.60
2023-04-30T14:47:07.894Z,3.75
2023-04-30T14:49:34.750Z,2.28
2023-04-30T14:52:01.792Z,2.63
2023-04-30T14:54:28.564Z,2.17
2023-04-30T14:56:55.631Z,3.88
2023-04-30T14:59:22.441Z,3.13
2023-04-30T15:01:49.303Z,2.35
2023-04-30T15:04:16.284Z,2.55
2023-04-30T15:06:43.184Z,3.00
2023-04-30T15:09:11.681Z,3.30
2023-04-30T15:11:38.290Z,2.90
2023-04-30T15:14:04.927Z,4.25
2023-04-30T15:16:40.657Z,2.95
2023-04-30T15:19:07.591Z,4.38
2023-04-30T15:21:35.779Z,5.40
2023-04-30T15:24:02.354Z,3.03
2023-04-30T15:26:29.601Z,2.28
2023-04-30T15:28:56.816Z,2.35
2023-04-30T15:31:24.124Z,2.28
2023-04-30T15:33:51.291Z,2.17
2023-04-30T15:36:18.176Z,2.20
2023-04-30T15:38:45.260Z,1.27
2023-04-30T15:41:11.810Z,2.65
2023-04-30T15:43:38.450Z,2.05
2023-04-30T15:46:05.210Z,1.98
2023-04-30T15:48:31.899Z,2.70
2023-04-30T15:50:58.569Z,3.00
2023-04-30T15:53:25.761Z,2.30
2023-04-30T15:55:53.167Z,1.42
2023-04-30T15:58:19.792Z,2.00
2023-04-30T16:00:46.656Z,2.10
2023-04-30T16:03:13.672Z,2.50
2023-04-30T16:05:41.323Z,2.47
2023-04-30T16:08:09.583Z,2.08
2023-04-30T16:10:37.077Z,1.65
2023-04-30T16:13:03.715Z,1.50
2023-04-30T16:15:30.559Z,1.20
2023-04-30T16:17:57.513Z,1.02
2023-04-30T16:20:24.693Z,1.23
2023-04-30T16:22:52.529Z,1.10
2023-04-30T16:25:20.566Z,0.90
2023-04-30T16:27:47.497Z,1.40
2023-04-30T16:30:14.171Z,1.30
2023-04-30T16:32:40.865Z,1.60
2023-04-30T16:35:08.261Z,5.72
2023-04-30T16:37:34.867Z,1.60
2023-04-30T16:40:01.765Z,0.60
2023-04-30T16:42:30.174Z,0.80
2023-04-30T16:44:57.089Z,0.98
2023-04-30T16:47:24.119Z,0.77
2023-04-30T16:49:50.999Z,1.15
2023-04-30T16:52:17.673Z,0.65
2023-04-30T16:54:44.265Z,1.10
2023-04-30T16:57:10.901Z,1.40
2023-04-30T16:59:37.581Z,1.20
2023-04-30T17:02:04.760Z,0.63
2023-04-30T17:04:32.497Z,1.20
2023-04-30T17:06:59.645Z,1.10
2023-04-30T17:09:26.344Z,0.80
2023-04-30T17:11:52.962Z,1.02
2023-04-30T17:14:19.831Z,0.98
2023-04-30T17:16:46.972Z,0.77
2023-04-30T17:19:13.756Z,1.20
2023-04-30T17:21:40.400Z,0.90
2023-04-30T17:24:07.708Z,1.10
2023-04-30T17:26:34.362Z,1.00
2023-04-30T17:29:01.354Z,0.82
2023-04-30T17:31:30.806Z,1.05
2023-04-30T17:33:57.575Z,1.00
2023-04-30T17:36:24.827Z,0.93
2023-04-30T17:38:51.576Z,1.20
2023-04-30T17:41:18.644Z,1.20
2023-04-30T17:43:45.520Z,1.40
2023-04-30T17:46:12.729Z,1.23
2023-04-30T17:48:39.319Z,1.33
2023-04-30T17:51:06.589Z,1.23
2023-04-30T17:53:33.716Z,1.60
2023-04-30T17:56:00.852Z,1.30
2023-04-30T17:58:27.534Z,1.08
2023-04-30T18:00:56.046Z,1.52
2023-04-30T18:03:22.942Z,1.55
2023-04-30T18:05:49.689Z,1.30
2023-04-30T18:08:16.944Z,1.35
2023-04-30T18:10:43.611Z,1.42
2023-04-30T18:13:10.736Z,1.38
2023-04-30T18:15:37.702Z,1.40
2023-04-30T18:18:04.596Z,1.30
2023-04-30T18:20:31.375Z,1.17
2023-04-30T18:22:58.316Z,1.60
2023-04-30T18:25:26.422Z,1.25
2023-04-30T18:27:53.116Z,1.30
2023-04-30T18:30:20.031Z,1.65
2023-04-30T18:32:46.955Z,1.38
2023-04-30T18:35:13.809Z,1.40
2023-04-30T18:37:42.946Z,1.27
2023-04-30T18:40:10.339Z,1.58
2023-04-30T18:42:37.596Z,1.30
2023-04-30T18:45:05.178Z,1.40
2023-04-30T18:47:32.926Z,1.50
2023-04-30T18:49:59.592Z,1.20
2023-04-30T18:52:26.283Z,1.40
2023-04-30T18:54:53.699Z,1.67
2023-04-30T18:57:20.421Z,1.73
2023-04-30T18:59:48.272Z,1.60
2023-04-30T19:02:15.571Z,1.35
2023-04-30T19:04:42.435Z,1.60
2023-04-30T19:07:09.012Z,1.90
2023-04-30T19:09:36.921Z,1.80
2023-04-30T19:12:04.117Z,2.20
2023-04-30T19:14:30.931Z,2.25
2023-04-30T19:16:57.623Z,2.63
2023-04-30T19:19:24.261Z,2.03
2023-04-30T19:21:50.836Z,1.85
2023-04-30T19:24:17.565Z,1.77
2023-04-30T19:26:44.626Z,1.40
2023-04-30T19:29:11.253Z,1.77
2023-04-30T19:31:38.384Z,2.13
2023-04-30T19:34:05.193Z,2.88
2023-04-30T19:36:32.129Z,2.80
2023-04-30T19:38:59.230Z,4.05
2023-04-30T19:41:27.084Z,1.80
2023-04-30T19:43:53.678Z,3.17
2023-04-30T19:46:21.007Z,8.63
2023-04-30T19:48:47.964Z,5.32
2023-04-30T19:51:14.706Z,2.40
2023-04-30T19:53:41.508Z,6.25
2023-04-30T19:56:08.805Z,11.32
2023-04-30T19:58:35.623Z,10.20
2023-04-30T20:01:02.349Z,2.50
2023-04-30T20:03:29.134Z,2.30
2023-04-30T20:05:56.223Z,4.20
2023-04-30T20:08:23.201Z,4.57
2023-04-30T20:10:50.177Z,8.93
2023-04-30T20:13:17.794Z,8.15
2023-04-30T20:15:44.782Z,4.60
2023-04-30T20:18:12.568Z,5.20
2023-04-30T20:20:39.260Z,4.63
2023-04-30T20:23:17.463Z,4.60
2023-04-30T20:25:45.595Z,3.78
2023-04-30T20:28:13.648Z,6.82
2023-04-30T20:30:42.617Z,13.23
2023-04-30T20:33:10.321Z,7.30
2023-04-30T20:35:43.946Z,3.75
2023-04-30T20:38:10.793Z,3.05
2023-04-30T20:40:41.206Z,1.92
2023-04-30T20:43:10.218Z,2.33
2023-04-30T20:45:37.231Z,2.10
2023-04-30T20:48:04.022Z,2.20
2023-04-30T20:50:30.860Z,3.78
2023-04-30T20:52:57.512Z,2.25
2023-04-30T20:55:24.203Z,2.75
2023-04-30T20:57:51.050Z,2.17
2023-04-30T21:00:18.110Z,2.00
2023-04-30T21:02:45.430Z,2.53
2023-04-30T21:05:12.309Z,2.72
2023-04-30T21:07:39.013Z,2.60
2023-04-30T21:10:07.640Z,2.35
2023-04-30T21:12:35.003Z,2.28
2023-04-30T21:15:01.720Z,2.50
2023-04-30T21:17:29.299Z,2.88
2023-04-30T21:19:56.883Z,2.90
2023-04-30T21:22:24.490Z,2.60
2023-04-30T21:24:54.299Z,2.80
2023-04-30T21:27:21.565Z,2.83
2023-04-30T21:29:48.494Z,2.83
2023-04-30T21:32:15.168Z,3.10
2023-04-30T21:34:41.847Z,2.72
2023-04-30T21:37:08.633Z,3.63
2023-04-30T21:39:35.441Z,3.47
2023-04-30T21:42:04.467Z,2.80
2023-04-30T21:44:32.684Z,2.58
2023-04-30T21:46:59.911Z,3.40
2023-04-30T21:49:26.967Z,3.00
2023-04-30T21:51:53.666Z,3.13
2023-04-30T21:54:20.447Z,2.95
2023-04-30T21:56:47.087Z,2.75
2023-04-30T21:59:13.737Z,2.92
2023-04-30T22:01:40.414Z,3.22
2023-04-30T22:04:07.199Z,3.33
2023-04-30T22:06:34.744Z,3.53
2023-04-30T22:09:01.661Z,3.05
2023-04-30T22:11:28.764Z,3.30
2023-04-30T22:13:55.454Z,3.30
2023-04-30T22:16:22.275Z,3.40
2023-04-30T22:18:48.939Z,3.10
2023-04-30T22:21:15.585Z,3.53
2023-04-30T22:23:42.392Z,3.00
2023-04-30T22:26:11.208Z,3.30
2023-04-30T22:28:38.246Z,3.60
2023-04-30T22:31:05.074Z,3.55
2023-04-30T22:33:36.178Z,3.35
2023-04-30T22:36:06.243Z,3.15
2023-04-30T22:38:33.445Z,3.63
2023-04-30T22:41:00.454Z,3.10
2023-04-30T22:43:30.162Z,3.47
2023-04-30T22:45:58.620Z,3.30
2023-04-30T22:48:26.814Z,3.90
2023-04-30T22:50:53.931Z,3.78
2023-04-30T22:53:20.807Z,4.05
2023-04-30T22:55:47.799Z,3.65
2023-04-30T22:58:14.425Z,3.47
2023-04-30T23:00:41.187Z,3.97
2023-04-30T23:03:08.087Z,4.10
2023-04-30T23:05:34.993Z,3.58
2023-04-30T23:08:01.680Z,3.50
2023-04-30T23:10:28.377Z,4.25
2023-04-30T23:12:56.491Z,3.85
2023-04-30T23:15:23.569Z,3.83
2023-04-30T23:17:51.453Z,3.88
2023-04-30T23:20:18.712Z,5.25
2023-04-30T23:22:45.518Z,3.95
2023-04-30T23:25:12.556Z,4.22
2023-04-30T23:27:39.188Z,4.13
2023-04-30T23:30:06.620Z,4.07
2023-04-30T23:32:33.472Z,4.10
2023-04-30T23:35:00.323Z,3.80
2023-04-30T23:37:27.599Z,4.45
2023-04-30T23:39:54.551Z,3.97
2023-04-30T23:42:21.293Z,4.22
2023-04-30T23:44:48.168Z,3.72
2023-04-30T23:47:14.816Z,3.35
2023-04-30T23:49:43.068Z,4.15
2023-04-30T23:52:12.689Z,5.05
2023-04-30T23:54:39.417Z,4.30
2023-04-30T23:57:06.104Z,4.72
2023-04-30T23:59:32.791Z,4.28
